Time;durP1;ratioP1;P1;durP2;ratioP2;P2;SDS_P1;SDS_P2;PMS_P1;PMS_P2;Temp;Humidity;BMP_temperature;BMP_pressure;BME280_temperature;BME280_humidity;BME280_pressure;Samples;Min_cycle;Max_cycle;Signal;HPM_P1;HPM_P2
2021/12/29 00:02:01;;;;;;;8.25;3.85;;;10.30;99.90;;;;;;5077489;28;20048;-59
2021/12/29 00:04:27;;;;;;;7.68;3.92;;;10.20;99.90;;;;;;5044319;28;20316;-59
2021/12/29 00:06:56;;;;;;;7.13;4.00;;;10.30;99.90;;;;;;5077354;28;20324;-60
2021/12/29 00:09:23;;;;;;;8.60;4.03;;;10.40;99.90;;;;;;5060766;28;20071;-59
2021/12/29 00:11:50;;;;;;;11.02;4.05;;;10.30;99.90;;;;;;5078142;28;20493;-58
2021/12/29 00:14:15;;;;;;;9.20;4.07;;;10.40;99.90;;;;;;5077297;28;20396;-59
2021/12/29 00:16:42;;;;;;;9.95;4.50;;;10.40;99.90;;;;;;5077348;28;20094;-58
2021/12/29 00:19:07;;;;;;;12.68;4.63;;;10.40;99.90;;;;;;5060616;28;20039;-59
2021/12/29 00:21:34;;;;;;;11.57;4.60;;;10.40;99.90;;;;;;5077308;28;20374;-59
2021/12/29 00:24:01;;;;;;;7.22;4.18;;;10.30;99.90;;;;;;5077310;28;20055;-58
2021/12/29 00:26:28;;;;;;;8.63;4.63;;;10.30;99.90;;;;;;5060494;28;20032;-58
2021/12/29 00:28:56;;;;;;;10.40;4.45;;;10.20;99.90;;;;;;5077312;28;20098;-59
2021/12/29 00:31:22;;;;;;;9.18;4.03;;;10.30;99.90;;;;;;5060423;28;20128;-58
2021/12/29 00:34:07;;;;;;;11.80;4.00;;;10.40;99.90;;;;;;5077923;28;20098;-58
2021/12/29 00:36:52;;;;;;;7.88;4.40;;;10.50;99.90;;;;;;5077075;28;20374;-58
2021/12/29 00:39:47;;;;;;;9.10;4.75;;;10.50;99.90;;;;;;5011766;28;20374;-59
2021/12/29 00:42:31;;;;;;;9.00;4.25;;;10.50;99.90;;;;;;5077770;28;20102;-61
2021/12/29 00:45:16;;;;;;;10.35;4.30;;;10.50;99.90;;;;;;5077284;28;20051;-59
2021/12/29 00:47:42;;;;;;;7.53;4.13;;;10.60;99.90;;;;;;5077419;28;20029;-59
2021/12/29 00:50:13;;;;;;;6.60;4.18;;;10.60;99.90;;;;;;5076960;28;20395;-59
2021/12/29 00:52:40;;;;;;;8.57;4.07;;;10.60;99.90;;;;;;5077445;28;20039;-59
2021/12/29 00:55:07;;;;;;;9.07;5.03;;;10.70;99.90;;;;;;5076528;28;20032;-59
2021/12/29 00:57:33;;;;;;;7.22;3.78;;;10.60;99.90;;;;;;5077322;28;20029;-58
2021/12/29 00:59:59;;;;;;;6.00;3.78;;;10.50;99.90;;;;;;5077318;28;20109;-58
2021/12/29 01:02:26;;;;;;;12.50;3.97;;;10.60;99.90;;;;;;5060001;28;20090;-57
2021/12/29 01:04:51;;;;;;;6.93;3.97;;;10.70;99.90;;;;;;5077242;28;20327;-58
2021/12/29 01:07:18;;;;;;;6.20;3.63;;;10.70;99.90;;;;;;5076170;28;20109;-59
2021/12/29 01:09:44;;;;;;;7.93;3.60;;;10.80;99.90;;;;;;5077680;28;20136;-58
2021/12/29 01:12:11;;;;;;;11.80;3.40;;;10.80;99.90;;;;;;5076502;28;20347;-59
2021/12/29 01:14:41;;;;;;;5.85;3.72;;;10.60;99.90;;;;;;5076966;28;20043;-60
2021/12/29 01:17:08;;;;;;;10.40;3.97;;;10.70;99.90;;;;;;5076309;28;20100;-58
2021/12/29 01:19:34;;;;;;;8.85;3.65;;;10.60;99.90;;;;;;5077846;28;20111;-58
2021/12/29 01:22:01;;;;;;;5.68;3.15;;;10.80;99.90;;;;;;5077575;28;20207;-58
2021/12/29 01:24:28;;;;;;;9.02;3.10;;;10.80;99.90;;;;;;5076948;28;20038;-58
2021/12/29 01:26:55;;;;;;;9.30;3.75;;;10.90;99.90;;;;;;5076980;28;20033;-58
2021/12/29 01:29:22;;;;;;;7.25;3.35;;;10.90;99.90;;;;;;5077513;28;20043;-59
2021/12/29 01:31:48;;;;;;;7.97;3.40;;;10.90;99.90;;;;;;5076869;28;20036;-60
2021/12/29 01:34:14;;;;;;;6.00;3.28;;;10.80;99.90;;;;;;5076090;28;20040;-58
2021/12/29 01:36:40;;;;;;;7.20;3.33;;;10.80;99.90;;;;;;5076733;28;20055;-58
2021/12/29 01:39:10;;;;;;;8.38;3.50;;;10.80;99.90;;;;;;5076146;28;20025;-59
2021/12/29 01:41:36;;;;;;;6.50;3.20;;;10.80;99.90;;;;;;5076873;28;20388;-58
2021/12/29 01:44:03;;;;;;;6.88;3.53;;;10.80;99.90;;;;;;5076719;28;20082;-58
2021/12/29 01:46:29;;;;;;;7.18;3.45;;;10.70;99.90;;;;;;5076692;28;20048;-59
2021/12/29 01:48:55;;;;;;;7.15;3.40;;;10.70;99.90;;;;;;5077222;28;20032;-59
2021/12/29 01:51:21;;;;;;;8.48;3.45;;;10.70;99.90;;;;;;5076135;28;20029;-58
2021/12/29 01:54:01;;;;;;;9.00;3.78;;;10.90;99.90;;;;;;5076595;28;20094;-58
2021/12/29 01:56:28;;;;;;;7.22;3.15;;;10.90;99.90;;;;;;5076676;28;20041;-58
2021/12/29 01:58:54;;;;;;;8.55;3.33;;;10.80;99.90;;;;;;5076632;28;20032;-58
2021/12/29 02:01:20;;;;;;;8.02;3.17;;;10.90;99.90;;;;;;5075850;28;20020;-58
2021/12/29 02:03:47;;;;;;;7.95;2.90;;;10.90;99.90;;;;;;5075753;28;20029;-58
2021/12/29 02:06:13;;;;;;;6.78;3.35;;;10.90;99.90;;;;;;5076563;28;20408;-58
2021/12/29 02:08:39;;;;;;;6.72;2.78;;;10.80;99.90;;;;;;5075761;28;20087;-58
2021/12/29 02:11:07;;;;;;;5.35;2.60;;;10.90;99.90;;;;;;5076514;28;20304;-58
2021/12/29 02:13:32;;;;;;;9.05;2.80;;;11.00;99.90;;;;;;5076404;28;20295;-58
2021/12/29 02:15:58;;;;;;;5.55;2.50;;;10.90;99.90;;;;;;5076656;28;20105;-58
2021/12/29 02:18:25;;;;;;;6.40;2.35;;;11.10;99.90;;;;;;5075936;28;20283;-58
2021/12/29 02:20:53;;;;;;;5.47;2.40;;;11.00;99.90;;;;;;5080246;28;20035;-59
2021/12/29 02:23:30;;;;;;;6.43;2.05;;;11.00;99.90;;;;;;5080442;28;20303;-58
2021/12/29 02:25:57;;;;;;;5.88;2.40;;;10.80;99.90;;;;;;5080486;28;20066;-58
2021/12/29 02:28:32;;;;;;;5.93;2.30;;;10.80;99.90;;;;;;5079635;28;20059;-60
2021/12/29 02:30:59;;;;;;;7.10;2.40;;;11.00;99.90;;;;;;5080117;28;20086;-59
2021/12/29 02:33:26;;;;;;;5.95;2.80;;;11.00;99.90;;;;;;5079188;28;20288;-58
2021/12/29 02:35:53;;;;;;;7.43;2.42;;;10.90;99.90;;;;;;5079793;28;20419;-60
2021/12/29 02:38:35;;;;;;;7.38;2.25;;;10.80;99.90;;;;;;5079202;28;20075;-60
2021/12/29 02:41:06;;;;;;;3.72;2.40;;;10.80;99.90;;;;;;5079199;28;20038;-59
2021/12/29 02:43:36;;;;;;;6.07;2.40;;;10.70;99.90;;;;;;5079838;28;20292;-60
2021/12/29 02:46:06;;;;;;;5.57;2.60;;;10.70;99.90;;;;;;5079163;28;20100;-59
2021/12/29 02:48:37;;;;;;;5.70;2.67;;;10.70;99.90;;;;;;5062691;28;20024;-59
2021/12/29 02:51:07;;;;;;;4.95;2.40;;;10.60;99.90;;;;;;5080060;28;20066;-59
2021/12/29 02:53:33;;;;;;;7.53;2.83;;;10.80;99.90;;;;;;5079637;28;20351;-59
2021/12/29 02:55:59;;;;;;;5.60;2.75;;;10.90;99.90;;;;;;5079628;28;20034;-59
2021/12/29 02:58:25;;;;;;;7.00;3.08;;;10.90;99.90;;;;;;5079616;28;20300;-60
2021/12/29 03:00:53;;;;;;;9.45;3.63;;;10.90;99.90;;;;;;5079499;28;20036;-59
2021/12/29 03:03:24;;;;;;;6.45;3.08;;;11.00;99.90;;;;;;5079528;28;20084;-60
2021/12/29 03:05:51;;;;;;;7.05;3.83;;;11.00;99.90;;;;;;5079472;28;20115;-57
2021/12/29 03:08:18;;;;;;;3.72;3.00;;;11.00;99.90;;;;;;5078730;28;20037;-57
2021/12/29 03:10:46;;;;;;;7.30;3.47;;;10.90;99.90;;;;;;5078894;28;20048;-58
2021/12/29 03:13:12;;;;;;;5.78;2.78;;;10.90;99.90;;;;;;5079294;28;20032;-57
2021/12/29 03:15:39;;;;;;;5.22;3.10;;;10.90;99.90;;;;;;5079538;28;20047;-58
2021/12/29 03:18:06;;;;;;;5.35;3.13;;;10.90;99.90;;;;;;5079483;28;20067;-58
2021/12/29 03:20:33;;;;;;;8.45;3.47;;;10.90;99.90;;;;;;5078530;28;20292;-58
2021/12/29 03:22:59;;;;;;;6.70;2.90;;;10.80;99.90;;;;;;5061680;28;20032;-57
2021/12/29 03:25:26;;;;;;;7.32;3.72;;;10.70;99.90;;;;;;5078407;28;20036;-58
2021/12/29 03:27:58;;;;;;;6.82;2.80;;;10.80;99.90;;;;;;5079011;28;20052;-58
2021/12/29 03:30:26;;;;;;;3.38;2.42;;;10.80;99.90;;;;;;5079121;28;20040;-58
2021/12/29 03:33:02;;;;;;;5.85;2.72;;;10.90;99.90;;;;;;5078988;28;20509;-58
2021/12/29 03:35:33;;;;;;;4.72;2.38;;;10.80;99.90;;;;;;5063164;28;20503;-58
2021/12/29 03:38:01;;;;;;;5.45;2.90;;;10.70;99.90;;;;;;5079233;28;20033;-58
2021/12/29 03:40:27;;;;;;;4.82;2.60;;;10.90;99.90;;;;;;5077990;28;20312;-58
2021/12/29 03:42:54;;;;;;;4.00;2.75;;;10.90;99.90;;;;;;5078755;28;20060;-58
2021/12/29 03:45:20;;;;;;;4.47;2.67;;;10.60;99.90;;;;;;5078666;28;20039;-58
2021/12/29 03:47:46;;;;;;;4.55;2.92;;;10.70;99.90;;;;;;5078633;28;20392;-59
2021/12/29 03:50:12;;;;;;;4.55;2.83;;;10.70;99.90;;;;;;5078629;28;20040;-59
2021/12/29 03:52:38;;;;;;;3.67;3.00;;;10.80;99.90;;;;;;5078525;28;20338;-59
2021/12/29 03:55:04;;;;;;;4.07;3.15;;;10.80;99.90;;;;;;5078487;28;20054;-58
2021/12/29 03:57:30;;;;;;;7.40;3.30;;;10.70;99.90;;;;;;5078595;28;20127;-58
2021/12/29 03:59:56;;;;;;;4.47;3.35;;;10.70;99.90;;;;;;5078437;28;20052;-59
2021/12/29 04:02:22;;;;;;;5.10;3.40;;;10.70;99.90;;;;;;5078350;28;20142;-59
2021/12/29 04:04:48;;;;;;;6.75;3.70;;;10.70;99.90;;;;;;5078610;28;20488;-58
2021/12/29 04:07:14;;;;;;;7.05;3.53;;;10.70;99.90;;;;;;5077582;28;20025;-58
2021/12/29 04:09:39;;;;;;;6.50;3.45;;;10.80;99.90;;;;;;5078236;28;20409;-59
2021/12/29 04:12:06;;;;;;;5.15;3.40;;;10.60;99.90;;;;;;5077517;28;20094;-59
2021/12/29 04:14:31;;;;;;;8.07;3.40;;;10.50;99.90;;;;;;5078051;28;20265;-59
2021/12/29 04:17:07;;;;;;;4.97;3.35;;;10.60;99.90;;;;;;5077186;28;20047;-59
2021/12/29 04:22:18;;;;;;;5.57;3.97;;;10.70;99.90;;;;;;5077962;28;20411;-59
2021/12/29 04:24:44;;;;;;;4.07;3.22;;;10.70;99.90;;;;;;5077853;28;20040;-59
2021/12/29 04:27:09;;;;;;;18.83;14.68;;;10.60;99.90;;;;;;5077772;28;20043;-58
2021/12/29 04:29:35;;;;;;;7.65;3.88;;;10.40;99.90;;;;;;5077455;28;20044;-59
2021/12/29 04:32:01;;;;;;;6.38;3.80;;;10.50;99.90;;;;;;5077752;28;20311;-60
2021/12/29 04:34:27;;;;;;;8.18;3.92;;;10.60;99.90;;;;;;5077737;28;20028;-59
2021/12/29 04:36:53;;;;;;;6.50;3.70;;;10.60;99.90;;;;;;5077763;28;20119;-60
2021/12/29 04:39:18;;;;;;;4.85;3.83;;;10.60;99.90;;;;;;5077529;28;20040;-59
2021/12/29 04:41:44;;;;;;;8.93;4.10;;;10.60;99.90;;;;;;5059424;28;20036;-60
2021/12/29 04:44:10;;;;;;;7.22;4.50;;;10.60;99.90;;;;;;5077608;28;20032;-60
2021/12/29 04:46:39;;;;;;;5.53;3.70;;;10.60;99.90;;;;;;5077773;28;20112;-60
2021/12/29 04:49:09;;;;;;;6.00;4.22;;;10.50;99.90;;;;;;5077513;28;20066;-60
2021/12/29 04:51:36;;;;;;;5.50;3.70;;;10.70;99.90;;;;;;5077827;28;20040;-60
2021/12/29 04:54:07;;;;;;;5.35;4.10;;;10.80;99.90;;;;;;5077300;28;20072;-60
2021/12/29 04:56:33;;;;;;;8.50;4.22;;;10.80;99.90;;;;;;5077498;28;20029;-60
2021/12/29 04:58:59;;;;;;;5.65;3.85;;;10.80;99.90;;;;;;5077305;28;20124;-59
2021/12/29 05:01:25;;;;;;;8.35;4.07;;;10.80;99.90;;;;;;5077247;28;20328;-60
2021/12/29 05:03:52;;;;;;;7.00;4.10;;;10.80;99.90;;;;;;5076448;28;20028;-60
2021/12/29 05:09:03;;;;;;;7.45;4.53;;;10.80;99.90;;;;;;5077176;28;20044;-60
2021/12/29 05:11:28;;;;;;;4.90;4.43;;;10.80;99.90;;;;;;5077154;28;20369;-60
2021/12/29 05:13:55;;;;;;;5.00;4.43;;;10.80;99.90;;;;;;5076296;28;20387;-60
2021/12/29 05:16:26;;;;;;;5.35;4.32;;;10.80;99.90;;;;;;5077047;28;20029;-60
2021/12/29 05:18:51;;;;;;;6.53;4.40;;;10.70;99.90;;;;;;5077227;28;20029;-60
2021/12/29 05:21:17;;;;;;;5.22;4.40;;;10.70;99.90;;;;;;5076205;28;20289;-60
2021/12/29 05:23:43;;;;;;;5.10;4.50;;;10.60;99.90;;;;;;5076987;28;20040;-60
2021/12/29 05:26:09;;;;;;;5.40;4.90;;;10.70;99.90;;;;;;5059828;28;20171;-60
2021/12/29 05:28:35;;;;;;;5.68;4.57;;;10.70;99.90;;;;;;5076872;28;20028;-60
2021/12/29 05:31:01;;;;;;;4.95;4.47;;;10.70;99.90;;;;;;5076960;28;20029;-60
2021/12/29 05:33:27;;;;;;;6.78;5.03;;;10.50;99.90;;;;;;5076151;28;20473;-60
2021/12/29 05:35:53;;;;;;;6.95;4.63;;;10.60;99.90;;;;;;5076735;28;20067;-60
2021/12/29 05:38:19;;;;;;;4.90;4.47;;;10.60;99.90;;;;;;5076163;28;20029;-60
2021/12/29 05:40:45;;;;;;;5.22;4.82;;;10.70;99.90;;;;;;5076684;28;20107;-60
2021/12/29 05:43:11;;;;;;;5.10;4.60;;;10.60;99.90;;;;;;5076735;28;20119;-60
2021/12/29 05:45:37;;;;;;;5.78;4.88;;;10.70;99.90;;;;;;5075961;28;20451;-60
2021/12/29 05:48:03;;;;;;;5.80;4.97;;;10.80;99.90;;;;;;5075975;28;20391;-60
2021/12/29 05:50:30;;;;;;;5.13;4.63;;;10.70;99.90;;;;;;5076797;28;20291;-60
2021/12/29 05:52:57;;;;;;;6.22;5.53;;;10.70;99.90;;;;;;5077114;28;20028;-60
2021/12/29 05:55:23;;;;;;;5.43;4.93;;;10.60;99.90;;;;;;5080668;28;20330;-60
2021/12/29 05:57:49;;;;;;;5.50;4.80;;;10.50;99.90;;;;;;5081158;28;20048;-59
2021/12/29 06:00:20;;;;;;;6.43;4.97;;;10.50;99.90;;;;;;5080720;28;20033;-60
2021/12/29 06:02:46;;;;;;;5.50;4.93;;;10.60;99.90;;;;;;5080680;28;20028;-60
2021/12/29 06:05:12;;;;;;;5.75;5.25;;;10.60;99.90;;;;;;5080635;28;20033;-60
2021/12/29 06:07:38;;;;;;;5.28;4.78;;;10.60;99.90;;;;;;5079775;28;20326;-60
2021/12/29 06:10:06;;;;;;;5.22;4.35;;;10.60;99.90;;;;;;5079752;28;20051;-60
2021/12/29 06:12:32;;;;;;;5.93;5.10;;;10.70;99.90;;;;;;5079640;28;20102;-60
2021/12/29 06:14:58;;;;;;;5.55;4.78;;;10.50;99.90;;;;;;5080231;28;20036;-60
2021/12/29 06:17:24;;;;;;;5.97;4.65;;;10.40;99.90;;;;;;5079463;28;20427;-60
2021/12/29 06:19:50;;;;;;;5.63;4.97;;;10.40;99.90;;;;;;5079521;28;20024;-61
2021/12/29 06:22:16;;;;;;;5.25;4.75;;;10.40;99.90;;;;;;5080139;28;20059;-60
2021/12/29 06:24:43;;;;;;;5.45;4.78;;;10.50;99.90;;;;;;5080150;28;20067;-60
2021/12/29 06:27:09;;;;;;;5.43;5.00;;;10.60;99.90;;;;;;5080023;28;20328;-61
2021/12/29 06:29:36;;;;;;;5.57;4.85;;;10.70;99.90;;;;;;5079266;28;20396;-60
2021/12/29 06:32:02;;;;;;;6.55;4.82;;;10.60;99.90;;;;;;5079286;28;20044;-60
2021/12/29 06:34:29;;;;;;;5.10;4.30;;;10.50;99.90;;;;;;5062470;28;20043;-60
2021/12/29 06:36:56;;;;;;;7.38;4.50;;;10.50;99.90;;;;;;5079910;28;20036;-60
2021/12/29 06:39:22;;;;;;;5.97;4.68;;;10.30;99.90;;;;;;5080018;28;20075;-62
2021/12/29 06:41:48;;;;;;;5.38;4.68;;;10.10;99.90;;;;;;5079868;28;20070;-60
2021/12/29 06:44:14;;;;;;;5.68;4.85;;;10.00;99.90;;;;;;5079827;28;20304;-59
2021/12/29 06:46:40;;;;;;;7.03;4.82;;;9.90;99.90;;;;;;5079776;28;20033;-59
2021/12/29 06:49:06;;;;;;;5.32;4.82;;;9.90;99.90;;;;;;5079736;28;20044;-59
2021/12/29 06:51:31;;;;;;;5.22;4.43;;;9.80;99.90;;;;;;5062441;28;20277;-59
2021/12/29 06:53:57;;;;;;;5.63;4.70;;;9.80;99.90;;;;;;5062237;28;20124;-61
2021/12/29 06:56:23;;;;;;;6.15;4.50;;;9.80;99.90;;;;;;5079566;28;20052;-59
2021/12/29 06:58:49;;;;;;;4.85;4.35;;;9.70;99.90;;;;;;5078938;28;20437;-61
2021/12/29 07:01:16;;;;;;;6.35;4.80;;;9.70;99.90;;;;;;5079550;28;20310;-59
2021/12/29 07:03:42;;;;;;;6.82;4.70;;;9.60;99.90;;;;;;5079543;28;20028;-61
2021/12/29 07:06:08;;;;;;;6.82;4.05;;;9.50;99.90;;;;;;5061224;28;20040;-59
2021/12/29 07:08:34;;;;;;;5.80;4.30;;;9.50;99.90;;;;;;5079522;28;20033;-59
2021/12/29 07:11:01;;;;;;;5.55;4.25;;;9.50;99.90;;;;;;5078571;28;20028;-59
2021/12/29 07:13:26;;;;;;;7.47;3.60;;;9.40;99.90;;;;;;5079432;28;20033;-60
2021/12/29 07:15:52;;;;;;;6.95;4.10;;;9.40;99.90;;;;;;5079150;28;20408;-61
2021/12/29 07:18:18;;;;;;;8.73;4.40;;;9.40;99.90;;;;;;5079185;28;20037;-60
2021/12/29 07:20:44;;;;;;;6.28;3.80;;;9.40;99.90;;;;;;5079183;28;20387;-60
2021/12/29 07:23:11;;;;;;;4.53;3.83;;;9.30;99.90;;;;;;5079163;28;20111;-60
2021/12/29 07:25:37;;;;;;;10.40;3.92;;;9.40;99.90;;;;;;5079123;28;20037;-60
2021/12/29 07:28:03;;;;;;;7.80;4.00;;;9.30;99.90;;;;;;5079370;28;20094;-60
2021/12/29 07:30:29;;;;;;;5.85;3.90;;;9.30;99.90;;;;;;5079074;28;20021;-60
2021/12/29 07:32:55;;;;;;;8.95;3.65;;;9.30;99.90;;;;;;5078158;28;20047;-60
2021/12/29 07:35:21;;;;;;;9.38;3.88;;;9.40;99.90;;;;;;5078556;28;20367;-60
2021/12/29 07:37:47;;;;;;;6.70;3.20;;;9.50;99.90;;;;;;5078788;28;20345;-59
2021/12/29 07:40:13;;;;;;;8.15;3.55;;;9.60;99.90;;;;;;5061265;28;20032;-59
2021/12/29 07:42:41;;;;;;;7.60;3.35;;;9.50;99.90;;;;;;5077858;28;20395;-59
2021/12/29 07:45:09;;;;;;;7.28;3.65;;;9.40;99.90;;;;;;5078005;28;20088;-58
2021/12/29 07:47:39;;;;;;;6.68;3.00;;;9.40;99.90;;;;;;5078574;28;20319;-60
2021/12/29 07:50:05;;;;;;;6.85;3.15;;;9.40;99.90;;;;;;5078597;28;20308;-61
2021/12/29 07:52:31;;;;;;;7.28;3.08;;;9.30;99.90;;;;;;5078466;28;20035;-58
2021/12/29 07:54:57;;;;;;;10.02;3.10;;;9.30;99.90;;;;;;5078440;28;20115;-59
2021/12/29 07:57:22;;;;;;;5.13;3.15;;;9.20;99.90;;;;;;5078534;28;20036;-59
2021/12/29 07:59:48;;;;;;;7.38;3.15;;;9.20;99.90;;;;;;5061609;28;20337;-58
2021/12/29 08:02:17;;;;;;;4.45;2.72;;;9.30;99.90;;;;;;5078583;28;20421;-59
2021/12/29 08:04:44;;;;;;;6.45;3.00;;;9.30;99.90;;;;;;5078292;28;20032;-59
2021/12/29 08:07:10;;;;;;;6.43;2.65;;;9.30;99.90;;;;;;5078483;28;20055;-59
2021/12/29 08:09:36;;;;;;;7.18;2.58;;;9.30;99.90;;;;;;5078310;28;20400;-59
2021/12/29 08:12:02;;;;;;;10.02;2.65;;;9.40;99.90;;;;;;5077669;28;20135;-59
2021/12/29 08:14:28;;;;;;;6.30;3.00;;;9.40;99.90;;;;;;5078076;28;20028;-59
2021/12/29 08:16:54;;;;;;;6.50;2.50;;;9.30;99.90;;;;;;5076381;28;20426;-59
2021/12/29 08:19:20;;;;;;;7.10;2.72;;;9.30;99.90;;;;;;5078302;28;20028;-59
2021/12/29 08:21:45;;;;;;;8.15;3.00;;;9.30;99.90;;;;;;5078051;28;20296;-58
2021/12/29 08:24:11;;;;;;;7.32;2.72;;;9.10;99.90;;;;;;5077696;28;20047;-58
2021/12/29 08:26:37;;;;;;;9.20;2.78;;;9.10;99.90;;;;;;5076895;28;20071;-62
2021/12/29 08:29:03;;;;;;;9.30;2.97;;;9.20;99.90;;;;;;5077754;28;20020;-62
2021/12/29 08:31:29;;;;;;;8.43;2.70;;;9.10;99.90;;;;;;5076972;28;20122;-62
2021/12/29 08:33:55;;;;;;;9.40;2.88;;;9.20;99.90;;;;;;5077596;28;20064;-63
2021/12/29 08:36:22;;;;;;;13.02;3.10;;;9.20;99.90;;;;;;5077513;28;20308;-62
2021/12/29 08:38:49;;;;;;;10.27;3.20;;;9.20;99.90;;;;;;5077034;28;20040;-62
2021/12/29 08:41:16;;;;;;;8.35;3.33;;;9.20;99.90;;;;;;5077556;28;20025;-63
2021/12/29 08:43:42;;;;;;;10.43;3.22;;;9.10;99.90;;;;;;5076963;28;20044;-62
2021/12/29 08:46:08;;;;;;;11.20;3.55;;;9.10;99.90;;;;;;5078028;28;20110;-62
2021/12/29 08:48:37;;;;;;;10.57;3.17;;;9.10;99.90;;;;;;5077457;28;20036;-62
2021/12/29 08:51:03;;;;;;;6.75;3.08;;;9.10;99.90;;;;;;5077427;28;20403;-62
2021/12/29 08:53:29;;;;;;;11.82;3.00;;;9.20;99.90;;;;;;5076597;28;20135;-62
2021/12/29 08:55:57;;;;;;;8.57;3.33;;;9.20;99.90;;;;;;5077351;28;20036;-62
2021/12/29 08:58:26;;;;;;;9.70;3.00;;;9.20;99.90;;;;;;5077515;28;20025;-62
2021/12/29 09:00:54;;;;;;;11.43;3.13;;;9.20;99.90;;;;;;5077007;28;20420;-63
2021/12/29 09:03:21;;;;;;;8.05;3.00;;;9.30;99.90;;;;;;5077180;28;20104;-63
2021/12/29 09:05:48;;;;;;;9.38;3.10;;;9.20;99.90;;;;;;5077051;28;20036;-62
2021/12/29 09:08:14;;;;;;;10.27;3.15;;;9.20;99.90;;;;;;5077032;28;20062;-63
2021/12/29 09:10:39;;;;;;;8.40;2.92;;;9.10;99.90;;;;;;5077472;28;20380;-63
2021/12/29 09:13:05;;;;;;;9.18;3.10;;;9.20;99.90;;;;;;5077007;28;20067;-63
2021/12/29 09:15:32;;;;;;;10.82;3.17;;;9.30;99.90;;;;;;5077356;28;20037;-63
2021/12/29 09:17:59;;;;;;;10.32;3.50;;;9.30;99.90;;;;;;5076936;28;20029;-63
2021/12/29 09:20:31;;;;;;;10.50;2.95;;;9.30;99.90;;;;;;5077434;28;20104;-63
2021/12/29 09:23:03;;;;;;;9.83;3.17;;;9.30;99.90;;;;;;5077129;28;20449;-62
2021/12/29 09:25:30;;;;;;;;;;;9.30;99.90;;;;;;5077747;28;20033;-63
2021/12/29 09:27:56;;;;;;;14.90;2.67;;;9.50;99.90;;;;;;5075778;28;19999;-62
2021/12/29 09:30:25;;;;;;;7.20;2.47;;;9.40;99.90;;;;;;5077449;28;20048;-62
2021/12/29 09:32:52;;;;;;;14.13;3.38;;;9.30;99.90;;;;;;5076819;28;20033;-62
2021/12/29 09:35:20;;;;;;;10.32;3.45;;;9.40;99.90;;;;;;5076572;28;20075;-63
2021/12/29 09:37:46;;;;;;;9.52;2.60;;;9.50;99.90;;;;;;5076101;28;20405;-62
2021/12/29 09:40:14;;;;;;;10.20;3.00;;;9.40;99.90;;;;;;5076797;28;20066;-62
2021/12/29 09:42:40;;;;;;;11.85;2.90;;;9.40;99.90;;;;;;5076054;28;20043;-63
2021/12/29 09:45:08;;;;;;;9.82;2.97;;;9.40;99.90;;;;;;5076668;28;20028;-62
2021/12/29 09:47:35;;;;;;;12.60;2.88;;;9.50;99.90;;;;;;5076729;28;20095;-62
2021/12/29 09:50:05;;;;;;;9.50;2.75;;;9.50;99.90;;;;;;5075778;28;20028;-63
2021/12/29 09:52:33;;;;;;;10.27;2.53;;;9.50;99.90;;;;;;5076613;28;20036;-63
2021/12/29 09:55:04;;;;;;;9.88;3.00;;;9.50;99.90;;;;;;5059267;28;20036;-63
2021/12/29 09:57:31;;;;;;;9.68;3.00;;;9.50;99.90;;;;;;5060269;28;20029;-62
2021/12/29 09:59:57;;;;;;;9.00;2.90;;;9.50;99.90;;;;;;5075724;28;20020;-63
2021/12/29 10:02:23;;;;;;;11.75;3.33;;;9.50;99.90;;;;;;5076659;28;20078;-63
2021/12/29 10:04:49;;;;;;;8.55;2.97;;;9.50;99.90;;;;;;5059149;28;20029;-63
2021/12/29 10:07:18;;;;;;;9.65;2.88;;;9.50;99.90;;;;;;5059447;28;20037;-64
2021/12/29 10:09:44;;;;;;;11.40;3.65;;;9.50;99.90;;;;;;5075559;28;20043;-62
2021/12/29 10:12:21;;;;;;;9.18;2.97;;;9.60;99.90;;;;;;5076788;28;20028;-63
2021/12/29 10:14:59;;;;;;;9.27;3.58;;;9.70;99.90;;;;;;5075700;28;20066;-63
2021/12/29 10:17:27;;;;;;;13.50;3.47;;;9.70;99.90;;;;;;5075572;28;20021;-62
2021/12/29 10:20:06;;;;;;;8.85;3.10;;;9.70;99.90;;;;;;5076385;28;20456;-63
2021/12/29 10:22:32;;;;;;;13.18;3.10;;;9.80;99.90;;;;;;5076476;28;20032;-62
2021/12/29 10:25:13;;;;;;;8.73;3.17;;;9.70;99.90;;;;;;5076160;28;20124;-63
2021/12/29 10:27:40;;;;;;;8.93;3.00;;;9.80;99.90;;;;;;5075546;28;20032;-64
2021/12/29 10:30:28;;;;;;;10.25;2.78;;;9.80;99.90;;;;;;5076330;28;20089;-64
2021/12/29 10:32:56;;;;;;;10.70;3.13;;;9.90;99.90;;;;;;5076245;28;20036;-64
2021/12/29 10:35:39;;;;;;;9.38;3.13;;;9.90;99.90;;;;;;5076016;28;20044;-64
2021/12/29 10:38:20;;;;;;;10.65;3.20;;;9.90;99.90;;;;;;5076745;28;20404;-64
2021/12/29 10:40:48;;;;;;;11.15;2.70;;;9.90;99.90;;;;;;5078512;28;20063;-64
2021/12/29 10:43:15;;;;;;;14.52;2.92;;;9.90;99.90;;;;;;5079190;28;20041;-64
2021/12/29 10:45:44;;;;;;;12.18;2.97;;;9.90;99.90;;;;;;5079674;28;20086;-64
2021/12/29 10:48:24;;;;;;;10.65;2.78;;;9.90;99.90;;;;;;5079428;28;20032;-63
2021/12/29 10:51:05;;;;;;;11.40;2.58;;;9.90;99.90;;;;;;5079377;28;20123;-64
2021/12/29 10:53:32;;;;;;;12.73;2.70;;;9.90;99.90;;;;;;5079431;28;20033;-63
2021/12/29 10:55:59;;;;;;;10.27;3.08;;;9.90;99.90;;;;;;5079571;28;20029;-63
2021/12/29 10:58:28;;;;;;;11.95;2.88;;;9.90;99.90;;;;;;5062192;28;20029;-63
2021/12/29 11:01:06;;;;;;;7.93;2.75;;;9.90;99.90;;;;;;5079642;28;20024;-64
2021/12/29 11:03:34;;;;;;;10.25;3.30;;;9.90;99.90;;;;;;5079075;28;20043;-63
2021/12/29 11:06:02;;;;;;;13.05;3.80;;;9.90;99.90;;;;;;5078658;28;20124;-64
2021/12/29 11:08:31;;;;;;;9.18;3.85;;;10.00;99.90;;;;;;5079336;28;20060;-65
2021/12/29 11:11:04;;;;;;;11.23;4.57;;;9.90;99.90;;;;;;5078790;28;20039;-63
2021/12/29 11:13:31;;;;;;;8.80;4.25;;;10.00;99.90;;;;;;5079743;28;20060;-64
2021/12/29 11:15:59;;;;;;;13.35;3.95;;;10.00;99.90;;;;;;5079914;28;20055;-64
2021/12/29 11:18:26;;;;;;;10.20;3.78;;;10.00;99.90;;;;;;5078652;28;20028;-64
2021/12/29 11:20:57;;;;;;;15.88;4.20;;;10.10;99.90;;;;;;5062057;28;20031;-63
2021/12/29 11:23:24;;;;;;;10.82;4.43;;;10.00;99.90;;;;;;5079160;28;20036;-64
2021/12/29 11:25:51;;;;;;;15.60;4.70;;;10.00;99.90;;;;;;5079062;28;20121;-64
2021/12/29 11:28:28;;;;;;;12.48;4.07;;;10.20;99.90;;;;;;5079062;28;20087;-64
2021/12/29 11:30:56;;;;;;;12.65;4.60;;;10.30;99.90;;;;;;5079103;28;20024;-64
2021/12/29 11:33:22;;;;;;;14.75;4.22;;;10.30;99.90;;;;;;5078623;28;20029;-63
2021/12/29 11:35:50;;;;;;;12.77;4.50;;;10.20;99.90;;;;;;5078057;28;20055;-63
2021/12/29 11:38:18;;;;;;;13.77;4.53;;;10.20;99.90;;;;;;5061480;28;20138;-64
2021/12/29 11:40:47;;;;;;;11.95;4.57;;;10.20;99.90;;;;;;5078963;28;20028;-64
2021/12/29 11:43:16;;;;;;;11.13;4.85;;;10.30;99.90;;;;;;5078025;28;20025;-63
2021/12/29 11:45:43;;;;;;;14.63;5.05;;;10.40;99.90;;;;;;5078092;28;20036;-63
2021/12/29 11:48:11;;;;;;;12.10;4.43;;;10.40;99.90;;;;;;5079055;28;20055;-63
2021/12/29 11:50:44;;;;;;;9.07;4.10;;;10.50;99.90;;;;;;5078434;28;20017;-64
2021/12/29 11:53:45;;;;;;;9.52;3.78;;;10.50;99.90;;;;;;5078682;28;20032;-64
2021/12/29 11:56:21;;;;;;;10.10;4.28;;;10.40;99.90;;;;;;5078636;28;20050;-64
2021/12/29 11:58:50;;;;;;;11.35;3.67;;;10.30;99.90;;;;;;5078614;28;20407;-63
2021/12/29 12:01:17;;;;;;;14.07;4.22;;;10.30;99.90;;;;;;5079067;28;20334;-64
2021/12/29 12:03:55;;;;;;;13.27;4.20;;;10.30;99.90;;;;;;5077613;28;20047;-64
2021/12/29 12:06:43;;;;;;;11.75;3.95;;;10.30;99.90;;;;;;5078357;28;20021;-64
2021/12/29 12:09:18;;;;;;;10.57;3.38;;;10.30;99.90;;;;;;5078382;28;20289;-64
2021/12/29 12:11:49;;;;;;;9.43;3.47;;;10.30;99.90;;;;;;5079001;28;20024;-65
2021/12/29 12:14:19;;;;;;;12.05;3.90;;;10.30;99.90;;;;;;5078236;28;20039;-65
2021/12/29 12:16:54;;;;;;;12.57;3.45;;;10.40;99.90;;;;;;5078098;28;20037;-64
2021/12/29 12:19:22;;;;;;;11.45;4.05;;;10.40;99.90;;;;;;5078378;28;20040;-64
2021/12/29 12:21:48;;;;;;;13.55;3.70;;;10.40;99.90;;;;;;5078053;28;20031;-63
2021/12/29 12:24:17;;;;;;;10.43;4.05;;;10.40;99.90;;;;;;5077908;28;20040;-64
2021/12/29 12:27:17;;;;;;;13.38;3.80;;;10.40;99.90;;;;;;5077920;28;20388;-65
2021/12/29 12:29:45;;;;;;;9.65;3.47;;;10.40;99.90;;;;;;5076387;28;20043;-64
2021/12/29 12:32:17;;;;;;;13.18;3.90;;;10.50;99.90;;;;;;5078461;28;20028;-65
2021/12/29 12:35:05;;;;;;;10.57;3.92;;;10.50;99.90;;;;;;5077574;28;20032;-65
2021/12/29 12:37:37;;;;;;;8.75;3.33;;;10.50;99.90;;;;;;5078008;28;20029;-64
2021/12/29 12:40:03;;;;;;;;;;;10.60;99.90;;;;;;5077276;28;20126;-63
2021/12/29 12:42:30;;;;;;;12.43;3.30;;;10.60;99.90;;;;;;5077455;28;19908;-63
2021/12/29 12:44:58;;;;;;;11.55;3.70;;;10.50;99.90;;;;;;5077611;28;20045;-65
2021/12/29 12:47:29;;;;;;;9.90;3.08;;;10.60;99.90;;;;;;5060195;28;20028;-64
2021/12/29 12:49:55;;;;;;;8.38;2.88;;;10.50;99.90;;;;;;5077420;28;20032;-64
2021/12/29 12:52:24;;;;;;;9.00;2.90;;;10.50;99.90;;;;;;5077732;28;20031;-60
2021/12/29 12:54:59;;;;;;;12.82;3.35;;;10.50;99.90;;;;;;5077345;28;20299;-65
2021/12/29 12:57:40;;;;;;;7.13;3.15;;;10.50;99.90;;;;;;5077384;28;20036;-65
2021/12/29 13:00:28;;;;;;;10.10;4.03;;;10.40;99.90;;;;;;5076445;28;20028;-63